sensor_id;sensor_type;location;lat;lon;timestamp;pressure;altitude;pressure_sealevel;temperature;humidity
9335;BME280;4706;41.844;26.082;2024-02-21T00:01:39;101579.44;;;10.20;79.03
9335;BME280;4706;41.844;26.082;2024-02-21T00:04:05;101591.56;;;10.30;79.16
9335;BME280;4706;41.844;26.082;2024-02-21T00:06:31;101594.81;;;10.21;78.77
9335;BME280;4706;41.844;26.082;2024-02-21T00:08:56;101593.72;;;10.12;79.16
9335;BME280;4706;41.844;26.082;2024-02-21T00:11:22;101590.97;;;10.17;79.34
9335;BME280;4706;41.844;26.082;2024-02-21T00:13:47;101566.50;;;10.06;79.52
9335;BME280;4706;41.844;26.082;2024-02-21T00:16:13;101590.38;;;10.00;79.92
9335;BME280;4706;41.844;26.082;2024-02-21T00:18:41;101588.44;;;9.80;80.92
9335;BME280;4706;41.844;26.082;2024-02-21T00:21:06;101588.13;;;9.71;81.39
9335;BME280;4706;41.844;26.082;2024-02-21T00:23:32;101587.59;;;9.75;81.33
9335;BME280;4706;41.844;26.082;2024-02-21T00:25:57;101588.44;;;9.80;81.03
9335;BME280;4706;41.844;26.082;2024-02-21T00:28:23;101586.78;;;9.84;80.89
9335;BME280;4706;41.844;26.082;2024-02-21T00:30:48;101590.66;;;9.93;80.79
9335;BME280;4706;41.844;26.082;2024-02-21T00:33:16;101587.34;;;9.86;80.60
9335;BME280;4706;41.844;26.082;2024-02-21T00:35:42;101584.88;;;9.90;80.60
9335;BME280;4706;41.844;26.082;2024-02-21T00:38:08;101584.31;;;9.83;80.51
9335;BME280;4706;41.844;26.082;2024-02-21T00:40:34;101585.69;;;9.75;80.29
9335;BME280;4706;41.844;26.082;2024-02-21T00:43:00;101583.19;;;9.68;81.30
9335;BME280;4706;41.844;26.082;2024-02-21T00:45:25;101579.31;;;9.59;81.69
9335;BME280;4706;41.844;26.082;2024-02-21T00:47:51;101574.06;;;9.58;81.75
9335;BME280;4706;41.844;26.082;2024-02-21T00:50:16;101575.41;;;9.45;82.14
9335;BME280;4706;41.844;26.082;2024-02-21T00:52:42;101585.28;;;9.46;82.41
9335;BME280;4706;41.844;26.082;2024-02-21T00:55:08;101573.47;;;9.40;82.72
9335;BME280;4706;41.844;26.082;2024-02-21T00:57:34;101584.72;;;9.39;82.94
9335;BME280;4706;41.844;26.082;2024-02-21T01:00:00;101577.94;;;9.57;82.14
9335;BME280;4706;41.844;26.082;2024-02-21T01:02:26;101572.75;;;9.70;81.56
9335;BME280;4706;41.844;26.082;2024-02-21T01:04:51;101574.16;;;9.78;81.51
9335;BME280;4706;41.844;26.082;2024-02-21T01:07:17;101572.75;;;9.81;81.36
9335;BME280;4706;41.844;26.082;2024-02-21T01:09:42;101576.06;;;9.83;81.20
9335;BME280;4706;41.844;26.082;2024-02-21T01:12:08;101565.13;;;9.93;81.26
9335;BME280;4706;41.844;26.082;2024-02-21T01:14:33;101568.41;;;9.95;81.25
9335;BME280;4706;41.844;26.082;2024-02-21T01:16:59;101546.41;;;9.90;80.68
9335;BME280;4706;41.844;26.082;2024-02-21T01:19:24;101559.34;;;9.89;80.55
9335;BME280;4706;41.844;26.082;2024-02-21T01:21:50;101566.72;;;9.79;80.82
9335;BME280;4706;41.844;26.082;2024-02-21T01:24:15;101561.19;;;9.68;80.95
9335;BME280;4706;41.844;26.082;2024-02-21T01:26:41;101563.94;;;9.68;80.98
9335;BME280;4706;41.844;26.082;2024-02-21T01:29:07;101560.91;;;9.65;80.77
9335;BME280;4706;41.844;26.082;2024-02-21T01:31:32;101565.59;;;9.64;80.03
9335;BME280;4706;41.844;26.082;2024-02-21T01:33:57;101566.94;;;9.57;80.64
9335;BME280;4706;41.844;26.082;2024-02-21T01:36:23;101567.47;;;9.59;80.56
9335;BME280;4706;41.844;26.082;2024-02-21T01:38:49;101562.50;;;9.51;80.64
9335;BME280;4706;41.844;26.082;2024-02-21T01:41:14;101558.94;;;9.55;80.26
9335;BME280;4706;41.844;26.082;2024-02-21T01:43:39;101554.25;;;9.40;81.02
9335;BME280;4706;41.844;26.082;2024-02-21T01:46:05;101557.78;;;9.36;80.97
9335;BME280;4706;41.844;26.082;2024-02-21T01:48:30;101561.63;;;9.35;81.19
9335;BME280;4706;41.844;26.082;2024-02-21T01:50:56;101559.69;;;9.30;81.84
9335;BME280;4706;41.844;26.082;2024-02-21T01:53:31;101553.09;;;9.31;81.34
9335;BME280;4706;41.844;26.082;2024-02-21T01:55:58;101553.97;;;9.37;81.15
9335;BME280;4706;41.844;26.082;2024-02-21T01:58:24;101555.31;;;9.29;81.53
9335;BME280;4706;41.844;26.082;2024-02-21T02:00:50;101544.28;;;9.24;81.85
9335;BME280;4706;41.844;26.082;2024-02-21T02:03:15;101545.16;;;9.30;81.75
9335;BME280;4706;41.844;26.082;2024-02-21T02:05:45;101545.69;;;9.32;81.66
9335;BME280;4706;41.844;26.082;2024-02-21T02:08:14;101538.75;;;9.14;82.28
9335;BME280;4706;41.844;26.082;2024-02-21T02:10:41;101556.06;;;9.19;82.23
9335;BME280;4706;41.844;26.082;2024-02-21T02:13:07;101544.22;;;9.14;82.49
9335;BME280;4706;41.844;26.082;2024-02-21T02:15:44;101551.94;;;9.17;81.94
9335;BME280;4706;41.844;26.082;2024-02-21T02:18:10;101558.00;;;9.19;82.34
9335;BME280;4706;41.844;26.082;2024-02-21T02:20:36;101559.69;;;9.30;81.91
9335;BME280;4706;41.844;26.082;2024-02-21T02:23:11;101560.28;;;9.37;81.44
9335;BME280;4706;41.844;26.082;2024-02-21T02:25:38;101566.06;;;9.41;81.68
9335;BME280;4706;41.844;26.082;2024-02-21T02:28:05;101557.84;;;9.46;81.56
9335;BME280;4706;41.844;26.082;2024-02-21T02:30:35;101563.91;;;9.58;80.79
9335;BME280;4706;41.844;26.082;2024-02-21T02:33:02;101548.81;;;9.56;80.52
9335;BME280;4706;41.844;26.082;2024-02-21T02:35:28;101549.63;;;9.56;80.69
9335;BME280;4706;41.844;26.082;2024-02-21T02:37:53;101546.06;;;9.56;80.54
9335;BME280;4706;41.844;26.082;2024-02-21T02:40:19;101545.22;;;9.55;80.43
9335;BME280;4706;41.844;26.082;2024-02-21T02:42:45;101551.28;;;9.57;80.69
9335;BME280;4706;41.844;26.082;2024-02-21T02:45:10;101549.91;;;9.60;80.72
9335;BME280;4706;41.844;26.082;2024-02-21T02:47:36;101544.69;;;9.58;80.28
9335;BME280;4706;41.844;26.082;2024-02-21T02:50:02;101558.16;;;9.65;80.07
9335;BME280;4706;41.844;26.082;2024-02-21T02:52:28;101548.81;;;9.66;80.21
9335;BME280;4706;41.844;26.082;2024-02-21T02:54:53;101545.00;;;9.67;79.90
9335;BME280;4706;41.844;26.082;2024-02-21T02:57:21;101552.13;;;9.63;80.43
9335;BME280;4706;41.844;26.082;2024-02-21T02:59:48;101545.78;;;9.57;80.77
9335;BME280;4706;41.844;26.082;2024-02-21T03:02:13;101555.13;;;9.61;80.54
9335;BME280;4706;41.844;26.082;2024-02-21T03:04:42;101558.16;;;9.65;80.74
9335;BME280;4706;41.844;26.082;2024-02-21T03:07:07;101555.72;;;9.73;79.95
9335;BME280;4706;41.844;26.082;2024-02-21T03:09:33;101553.53;;;9.70;80.13
9335;BME280;4706;41.844;26.082;2024-02-21T03:11:58;101558.72;;;9.67;79.73
9335;BME280;4706;41.844;26.082;2024-02-21T03:14:30;101546.06;;;9.66;79.54
9335;BME280;4706;41.844;26.082;2024-02-21T03:16:57;101551.81;;;9.49;80.34
9335;BME280;4706;41.844;26.082;2024-02-21T03:19:23;101549.31;;;9.42;80.42
9335;BME280;4706;41.844;26.082;2024-02-21T03:21:49;101558.13;;;9.44;80.52
9335;BME280;4706;41.844;26.082;2024-02-21T03:24:24;101563.63;;;9.49;80.30
9335;BME280;4706;41.844;26.082;2024-02-21T03:26:49;101564.44;;;9.55;80.34
9335;BME280;4706;41.844;26.082;2024-02-21T03:29:16;101561.97;;;9.59;79.96
9335;BME280;4706;41.844;26.082;2024-02-21T03:31:42;101565.28;;;9.56;80.25
9335;BME280;4706;41.844;26.082;2024-02-21T03:34:08;101564.19;;;9.52;79.91
9335;BME280;4706;41.844;26.082;2024-02-21T03:36:33;101564.19;;;9.52;79.91
9335;BME280;4706;41.844;26.082;2024-02-21T03:38:59;101562.50;;;9.45;79.98
9335;BME280;4706;41.844;26.082;2024-02-21T03:41:25;101560.00;;;9.34;79.62
9335;BME280;4706;41.844;26.082;2024-02-21T03:43:50;101561.06;;;9.28;79.73
9335;BME280;4706;41.844;26.082;2024-02-21T03:46:15;101555.59;;;9.33;79.73
9335;BME280;4706;41.844;26.082;2024-02-21T03:48:41;101555.03;;;9.31;79.09
9335;BME280;4706;41.844;26.082;2024-02-21T03:51:08;101558.28;;;9.22;79.36
9335;BME280;4706;41.844;26.082;2024-02-21T03:53:33;101572.53;;;9.14;79.96
9335;BME280;4706;41.844;26.082;2024-02-21T03:56:02;101570.63;;;9.25;79.54
9335;BME280;4706;41.844;26.082;2024-02-21T03:58:30;101572.03;;;9.28;79.43
9335;BME280;4706;41.844;26.082;2024-02-21T04:00:55;101574.53;;;9.29;79.76
9335;BME280;4706;41.844;26.082;2024-02-21T04:03:21;101574.25;;;9.31;80.10
9335;BME280;4706;41.844;26.082;2024-02-21T04:05:46;101572.03;;;9.28;79.73
9335;BME280;4706;41.844;26.082;2024-02-21T04:08:12;101570.63;;;9.25;79.46
9335;BME280;4706;41.844;26.082;2024-02-21T04:10:37;101572.84;;;9.23;79.96
9335;BME280;4706;41.844;26.082;2024-02-21T04:13:06;101575.06;;;9.26;80.72
9335;BME280;4706;41.844;26.082;2024-02-21T04:15:31;101560.72;;;10.07;100.00
9335;BME280;4706;41.844;26.082;2024-02-21T04:17:57;101558.56;;;10.76;90.74
9335;BME280;4706;41.844;26.082;2024-02-21T04:20:22;101554.72;;;10.61;85.47
9335;BME280;4706;41.844;26.082;2024-02-21T04:22:48;101564.63;;;10.42;79.86
9335;BME280;4706;41.844;26.082;2024-02-21T04:25:14;101559.63;;;9.98;78.52
9335;BME280;4706;41.844;26.082;2024-02-21T04:27:39;101564.47;;;9.65;79.04
9335;BME280;4706;41.844;26.082;2024-02-21T04:30:06;101572.31;;;9.26;80.33
9335;BME280;4706;41.844;26.082;2024-02-21T04:32:32;101575.72;;;9.01;81.48
9335;BME280;4706;41.844;26.082;2024-02-21T04:34:57;101574.59;;;8.92;82.18
9335;BME280;4706;41.844;26.082;2024-02-21T04:37:23;101575.19;;;8.99;81.69
9335;BME280;4706;41.844;26.082;2024-02-21T04:39:49;101583.38;;;8.94;81.92
9335;BME280;4706;41.844;26.082;2024-02-21T04:42:15;101583.69;;;9.03;81.96
9335;BME280;4706;41.844;26.082;2024-02-21T04:44:40;101582.09;;;9.07;81.99
9335;BME280;4706;41.844;26.082;2024-02-21T04:47:06;101581.81;;;9.08;81.86
9335;BME280;4706;41.844;26.082;2024-02-21T04:49:32;101583.47;;;9.09;81.81
9335;BME280;4706;41.844;26.082;2024-02-21T04:51:58;101593.09;;;9.12;81.74
9335;BME280;4706;41.844;26.082;2024-02-21T04:54:24;101585.16;;;9.15;81.28
9335;BME280;4706;41.844;26.082;2024-02-21T04:56:50;101584.25;;;9.05;81.21
9335;BME280;4706;41.844;26.082;2024-02-21T04:59:16;101589.16;;;8.97;81.70
9335;BME280;4706;41.844;26.082;2024-02-21T05:01:42;101584.25;;;9.05;81.76
9335;BME280;4706;41.844;26.082;2024-02-21T05:04:07;101592.22;;;9.06;81.76
9335;BME280;4706;41.844;26.082;2024-02-21T05:06:40;101582.06;;;9.02;81.51
9335;BME280;4706;41.844;26.082;2024-02-21T05:09:07;101596.94;;;9.16;81.11
9335;BME280;4706;41.844;26.082;2024-02-21T05:11:34;101593.63;;;9.14;80.86
9335;BME280;4706;41.844;26.082;2024-02-21T05:14:00;101610.69;;;9.16;81.13
9335;BME280;4706;41.844;26.082;2024-02-21T05:16:25;101601.88;;;9.14;80.37
9335;BME280;4706;41.844;26.082;2024-02-21T05:18:51;101613.13;;;9.12;80.02
9335;BME280;4706;41.844;26.082;2024-02-21T05:21:16;101605.63;;;8.97;80.04
9335;BME280;4706;41.844;26.082;2024-02-21T05:23:42;101610.00;;;8.93;79.06
9335;BME280;4706;41.844;26.082;2024-02-21T05:26:07;101610.91;;;8.67;79.43
9335;BME280;4706;41.844;26.082;2024-02-21T05:28:33;101615.88;;;8.70;79.66
9335;BME280;4706;41.844;26.082;2024-02-21T05:30:59;101595.78;;;8.64;79.42
9335;BME280;4706;41.844;26.082;2024-02-21T05:33:24;101618.97;;;8.46;80.56
9335;BME280;4706;41.844;26.082;2024-02-21T05:35:50;101627.44;;;8.45;81.20
9335;BME280;4706;41.844;26.082;2024-02-21T05:38:18;101626.25;;;8.36;81.79
9335;BME280;4706;41.844;26.082;2024-02-21T05:40:46;101625.56;;;8.23;82.51
9335;BME280;4706;41.844;26.082;2024-02-21T05:43:13;101629.81;;;8.36;82.03
9335;BME280;4706;41.844;26.082;2024-02-21T05:45:38;101611.91;;;8.28;81.66
9335;BME280;4706;41.844;26.082;2024-02-21T05:48:04;101626.19;;;8.31;81.89
9335;BME280;4706;41.844;26.082;2024-02-21T05:50:30;101629.81;;;8.36;82.25
9335;BME280;4706;41.844;26.082;2024-02-21T05:52:56;101638.19;;;8.51;81.87
9335;BME280;4706;41.844;26.082;2024-02-21T05:55:22;101628.88;;;8.52;81.85
9335;BME280;4706;41.844;26.082;2024-02-21T05:57:47;101637.50;;;8.66;81.33
9335;BME280;4706;41.844;26.082;2024-02-21T06:00:13;101639.19;;;8.72;81.33
9335;BME280;4706;41.844;26.082;2024-02-21T06:02:39;101631.44;;;8.64;81.29
9335;BME280;4706;41.844;26.082;2024-02-21T06:05:06;101639.19;;;8.72;81.31
9335;BME280;4706;41.844;26.082;2024-02-21T06:07:33;101648.81;;;8.75;81.08
9335;BME280;4706;41.844;26.082;2024-02-21T06:09:59;101645.84;;;8.82;81.12
9335;BME280;4706;41.844;26.082;2024-02-21T06:12:25;101641.50;;;8.86;81.19
9335;BME280;4706;41.844;26.082;2024-02-21T06:14:50;101642.94;;;8.98;81.04
9335;BME280;4706;41.844;26.082;2024-02-21T06:17:16;101643.53;;;9.06;80.69
9335;BME280;4706;41.844;26.082;2024-02-21T06:19:42;101644.41;;;9.11;80.35
9335;BME280;4706;41.844;26.082;2024-02-21T06:22:08;101650.22;;;9.15;80.20
9335;BME280;4706;41.844;26.082;2024-02-21T06:24:35;101649.34;;;9.09;80.35
9335;BME280;4706;41.844;26.082;2024-02-21T06:27:00;101651.47;;;9.02;80.22
9335;BME280;4706;41.844;26.082;2024-02-21T06:29:26;101660.81;;;9.01;80.59
9335;BME280;4706;41.844;26.082;2024-02-21T06:31:51;101650.63;;;8.96;81.10
9335;BME280;4706;41.844;26.082;2024-02-21T06:34:16;101656.34;;;8.90;81.24
9335;BME280;4706;41.844;26.082;2024-02-21T06:36:42;101669.00;;;8.96;80.95
9335;BME280;4706;41.844;26.082;2024-02-21T06:39:07;101663.53;;;8.96;81.13
9335;BME280;4706;41.844;26.082;2024-02-21T06:41:33;101671.69;;;8.91;81.87
9335;BME280;4706;41.844;26.082;2024-02-21T06:43:59;101667.06;;;8.91;82.14
9335;BME280;4706;41.844;26.082;2024-02-21T06:46:28;101663.03;;;9.04;81.83
9335;BME280;4706;41.844;26.082;2024-02-21T06:48:55;101659.75;;;9.07;81.92
9335;BME280;4706;41.844;26.082;2024-02-21T06:51:23;101657.63;;;9.14;81.65
9335;BME280;4706;41.844;26.082;2024-02-21T06:53:50;101657.63;;;9.14;81.33
9335;BME280;4706;41.844;26.082;2024-02-21T06:56:15;101668.69;;;9.30;80.84
9335;BME280;4706;41.844;26.082;2024-02-21T06:58:41;101666.00;;;9.40;81.03
9335;BME280;4706;41.844;26.082;2024-02-21T07:01:07;101663.28;;;9.45;80.63
9335;BME280;4706;41.844;26.082;2024-02-21T07:03:32;101670.72;;;9.55;80.24
9335;BME280;4706;41.844;26.082;2024-02-21T07:05:58;101664.19;;;9.61;79.79
9335;BME280;4706;41.844;26.082;2024-02-21T07:08:23;101669.69;;;9.66;79.71
9335;BME280;4706;41.844;26.082;2024-02-21T07:10:49;101663.41;;;9.70;80.06
9335;BME280;4706;41.844;26.082;2024-02-21T07:13:14;101658.81;;;9.86;80.14
9335;BME280;4706;41.844;26.082;2024-02-21T07:15:41;101650.56;;;9.96;78.71
9335;BME280;4706;41.844;26.082;2024-02-21T07:18:07;101666.03;;;10.13;78.42
9335;BME280;4706;41.844;26.082;2024-02-21T07:20:33;101669.94;;;10.32;78.10
9335;BME280;4706;41.844;26.082;2024-02-21T07:23:07;101658.44;;;10.51;76.00
9335;BME280;4706;41.844;26.082;2024-02-21T07:25:32;101657.00;;;10.38;75.95
9335;BME280;4706;41.844;26.082;2024-02-21T07:27:58;101662.81;;;10.52;76.17
9335;BME280;4706;41.844;26.082;2024-02-21T07:30:23;101668.59;;;10.35;76.89
9335;BME280;4706;41.844;26.082;2024-02-21T07:32:49;101666.63;;;10.30;77.61
9335;BME280;4706;41.844;26.082;2024-02-21T07:35:17;101654.84;;;10.45;77.08
9335;BME280;4706;41.844;26.082;2024-02-21T07:37:42;101667.78;;;10.50;77.56
9335;BME280;4706;41.844;26.082;2024-02-21T07:40:15;101669.94;;;10.37;77.52
9335;BME280;4706;41.844;26.082;2024-02-21T07:42:41;101665.00;;;10.44;77.38
9335;BME280;4706;41.844;26.082;2024-02-21T07:45:09;101673.53;;;10.48;77.74
9335;BME280;4706;41.844;26.082;2024-02-21T07:47:36;101680.66;;;10.29;78.38
9335;BME280;4706;41.844;26.082;2024-02-21T07:50:03;101655.00;;;10.03;78.68
9335;BME280;4706;41.844;26.082;2024-02-21T07:52:29;101683.34;;;10.13;79.39
9335;BME280;4706;41.844;26.082;2024-02-21T07:54:54;101681.91;;;9.90;80.90
9335;BME280;4706;41.844;26.082;2024-02-21T07:57:20;101671.72;;;9.96;79.60
9335;BME280;4706;41.844;26.082;2024-02-21T07:59:45;101678.66;;;10.09;79.71
9335;BME280;4706;41.844;26.082;2024-02-21T08:02:15;101675.25;;;9.81;80.02
9335;BME280;4706;41.844;26.082;2024-02-21T08:04:41;101677.81;;;10.03;80.12
9335;BME280;4706;41.844;26.082;2024-02-21T08:07:07;101676.28;;;10.28;79.76
9335;BME280;4706;41.844;26.082;2024-02-21T08:09:32;101669.72;;;10.54;78.85
9335;BME280;4706;41.844;26.082;2024-02-21T08:11:58;101675.22;;;10.69;77.41
9335;BME280;4706;41.844;26.082;2024-02-21T08:14:24;101677.16;;;10.74;76.69
9335;BME280;4706;41.844;26.082;2024-02-21T08:16:51;101673.59;;;10.84;76.40
9335;BME280;4706;41.844;26.082;2024-02-21T08:19:18;101678.78;;;11.11;75.37
9335;BME280;4706;41.844;26.082;2024-02-21T08:21:44;101677.66;;;11.12;74.96
9335;BME280;4706;41.844;26.082;2024-02-21T08:24:12;101681.00;;;11.14;74.69
9335;BME280;4706;41.844;26.082;2024-02-21T08:26:40;101684.28;;;11.21;74.61
9335;BME280;4706;41.844;26.082;2024-02-21T08:29:06;101677.94;;;11.36;74.18
9335;BME280;4706;41.844;26.082;2024-02-21T08:31:31;101687.00;;;11.36;73.73
9335;BME280;4706;41.844;26.082;2024-02-21T08:33:58;101679.84;;;11.40;74.02
9335;BME280;4706;41.844;26.082;2024-02-21T08:36:30;101680.28;;;11.68;73.79
9335;BME280;4706;41.844;26.082;2024-02-21T08:38:58;101675.84;;;11.93;73.01
9335;BME280;4706;41.844;26.082;2024-02-21T08:41:24;101681.53;;;12.06;72.51
9335;BME280;4706;41.844;26.082;2024-02-21T08:43:53;101679.44;;;12.37;71.57
9335;BME280;4706;41.844;26.082;2024-02-21T08:46:20;101680.47;;;12.47;70.52
9335;BME280;4706;41.844;26.082;2024-02-21T08:48:46;101673.25;;;12.90;69.96
9335;BME280;4706;41.844;26.082;2024-02-21T08:51:13;101676.31;;;13.18;67.54
9335;BME280;4706;41.844;26.082;2024-02-21T08:53:39;101680.69;;;13.24;67.93
9335;BME280;4706;41.844;26.082;2024-02-21T08:56:05;101678.44;;;13.55;66.85
9335;BME280;4706;41.844;26.082;2024-02-21T08:58:33;101679.25;;;13.55;66.14
9335;BME280;4706;41.844;26.082;2024-02-21T09:00:58;101675.50;;;13.70;66.07
9335;BME280;4706;41.844;26.082;2024-02-21T09:03:24;101672.34;;;14.01;65.02
9335;BME280;4706;41.844;26.082;2024-02-21T09:05:50;101680.41;;;14.16;64.97
9335;BME280;4706;41.844;26.082;2024-02-21T09:08:15;101677.16;;;14.33;63.88
9335;BME280;4706;41.844;26.082;2024-02-21T09:10:41;101685.81;;;14.45;63.63
9335;BME280;4706;41.844;26.082;2024-02-21T09:13:06;101685.31;;;14.62;62.12
9335;BME280;4706;41.844;26.082;2024-02-21T09:15:34;101682.97;;;14.31;62.97
9335;BME280;4706;41.844;26.082;2024-02-21T09:17:59;101690.41;;;14.55;62.83
9335;BME280;4706;41.844;26.082;2024-02-21T09:20:25;101683.41;;;14.76;61.96
9335;BME280;4706;41.844;26.082;2024-02-21T09:22:50;101681.38;;;15.01;61.38
9335;BME280;4706;41.844;26.082;2024-02-21T09:25:17;101683.13;;;15.11;61.11
9335;BME280;4706;41.844;26.082;2024-02-21T09:27:44;101674.63;;;15.21;60.91
9335;BME280;4706;41.844;26.082;2024-02-21T09:30:10;101679.19;;;15.58;59.81
9335;BME280;4706;41.844;26.082;2024-02-21T09:32:36;101684.31;;;15.51;59.67
9335;BME280;4706;41.844;26.082;2024-02-21T09:35:01;101678.91;;;15.73;59.13
9335;BME280;4706;41.844;26.082;2024-02-21T09:37:27;101670.69;;;15.82;58.57
9335;BME280;4706;41.844;26.082;2024-02-21T09:39:52;101679.00;;;15.82;58.69
9335;BME280;4706;41.844;26.082;2024-02-21T09:42:21;101672.84;;;15.99;58.03
9335;BME280;4706;41.844;26.082;2024-02-21T09:44:47;101671.69;;;16.14;57.82
9335;BME280;4706;41.844;26.082;2024-02-21T09:47:28;101670.75;;;16.05;57.34
9335;BME280;4706;41.844;26.082;2024-02-21T09:50:00;101666.06;;;15.77;57.97
9335;BME280;4706;41.844;26.082;2024-02-21T09:52:27;101668.31;;;15.62;58.73
9335;BME280;4706;41.844;26.082;2024-02-21T09:54:53;101657.22;;;15.89;57.53
9335;BME280;4706;41.844;26.082;2024-02-21T09:57:20;101661.94;;;15.89;57.22
9335;BME280;4706;41.844;26.082;2024-02-21T09:59:45;101661.41;;;16.00;57.07
9335;BME280;4706;41.844;26.082;2024-02-21T10:02:11;101647.38;;;15.69;56.82
9335;BME280;4706;41.844;26.082;2024-02-21T10:04:39;101647.94;;;15.94;56.50
9335;BME280;4706;41.844;26.082;2024-02-21T10:07:05;101641.59;;;15.93;56.84
9335;BME280;4706;41.844;26.082;2024-02-21T10:09:31;101639.38;;;16.18;55.58
9335;BME280;4706;41.844;26.082;2024-02-21T10:12:07;101630.28;;;15.90;56.04
9335;BME280;4706;41.844;26.082;2024-02-21T10:14:33;101629.94;;;16.41;55.12
9335;BME280;4706;41.844;26.082;2024-02-21T10:16:59;101630.94;;;16.82;54.14
9335;BME280;4706;41.844;26.082;2024-02-21T10:19:24;101618.38;;;17.15;53.27
9335;BME280;4706;41.844;26.082;2024-02-21T10:22:08;101624.72;;;17.56;51.50
9335;BME280;4706;41.844;26.082;2024-02-21T10:24:35;101617.81;;;17.44;50.32
9335;BME280;4706;41.844;26.082;2024-02-21T10:27:04;101616.16;;;17.35;50.13
9335;BME280;4706;41.844;26.082;2024-02-21T10:29:37;101600.50;;;17.56;50.73
9335;BME280;4706;41.844;26.082;2024-02-21T10:32:13;101606.31;;;17.86;48.96
9335;BME280;4706;41.844;26.082;2024-02-21T10:34:40;101603.72;;;17.89;47.56
9335;BME280;4706;41.844;26.082;2024-02-21T10:37:08;101603.72;;;17.89;47.90
9335;BME280;4706;41.844;26.082;2024-02-21T10:39:37;101600.97;;;18.15;48.46
9335;BME280;4706;41.844;26.082;2024-02-21T10:42:03;101592.94;;;18.40;47.07
9335;BME280;4706;41.844;26.082;2024-02-21T10:44:30;101575.03;;;18.50;46.49
9335;BME280;4706;41.844;26.082;2024-02-21T10:46:57;101574.09;;;18.37;45.77
9335;BME280;4706;41.844;26.082;2024-02-21T10:49:24;101568.84;;;17.92;46.55
9335;BME280;4706;41.844;26.082;2024-02-21T10:52:06;101569.69;;;18.10;46.68
9335;BME280;4706;41.844;26.082;2024-02-21T10:54:48;101562.28;;;18.40;46.28
9335;BME280;4706;41.844;26.082;2024-02-21T10:57:17;101557.25;;;17.99;45.76
9335;BME280;4706;41.844;26.082;2024-02-21T10:59:44;101548.88;;;17.90;45.60
9335;BME280;4706;41.844;26.082;2024-02-21T11:02:10;101552.66;;;18.03;46.12
9335;BME280;4706;41.844;26.082;2024-02-21T11:04:36;101547.72;;;18.08;45.26
9335;BME280;4706;41.844;26.082;2024-02-21T11:07:04;101546.25;;;18.28;45.90
9335;BME280;4706;41.844;26.082;2024-02-21T11:09:31;101533.41;;;18.53;43.74
9335;BME280;4706;41.844;26.082;2024-02-21T11:12:04;101534.69;;;18.82;42.54
9335;BME280;4706;41.844;26.082;2024-02-21T11:14:30;101529.53;;;19.01;42.15
9335;BME280;4706;41.844;26.082;2024-02-21T11:17:01;101522.19;;;19.26;42.88
9335;BME280;4706;41.844;26.082;2024-02-21T11:19:30;101528.81;;;19.42;41.71
9335;BME280;4706;41.844;26.082;2024-02-21T11:21:57;101522.34;;;19.51;40.96
9335;BME280;4706;41.844;26.082;2024-02-21T11:26:55;101513.91;;;19.59;41.62
9335;BME280;4706;41.844;26.082;2024-02-21T11:29:24;101509.47;;;19.67;41.66
9335;BME280;4706;41.844;26.082;2024-02-21T11:31:51;101510.63;;;19.66;41.66
9335;BME280;4706;41.844;26.082;2024-02-21T11:34:18;101493.88;;;19.66;41.97
9335;BME280;4706;41.844;26.082;2024-02-21T11:36:48;101499.84;;;19.56;41.79
9335;BME280;4706;41.844;26.082;2024-02-21T11:39:20;101496.56;;;18.95;42.62
9335;BME280;4706;41.844;26.082;2024-02-21T11:41:58;101499.50;;;18.51;44.36
9335;BME280;4706;41.844;26.082;2024-02-21T11:44:24;101491.53;;;18.32;44.32
9335;BME280;4706;41.844;26.082;2024-02-21T11:46:49;101487.25;;;18.35;43.97
9335;BME280;4706;41.844;26.082;2024-02-21T11:49:15;101484.97;;;18.19;44.24
9335;BME280;4706;41.844;26.082;2024-02-21T11:51:40;101487.47;;;18.04;44.44
9335;BME280;4706;41.844;26.082;2024-02-21T11:54:06;101484.56;;;17.83;44.42
9335;BME280;4706;41.844;26.082;2024-02-21T11:56:31;101477.63;;;17.54;44.40
9335;BME280;4706;41.844;26.082;2024-02-21T11:58:58;101462.34;;;17.17;45.42
9335;BME280;4706;41.844;26.082;2024-02-21T12:01:24;101467.72;;;17.05;45.89
9335;BME280;4706;41.844;26.082;2024-02-21T12:03:50;101470.59;;;16.91;46.38
9335;BME280;4706;41.844;26.082;2024-02-21T12:06:16;101457.75;;;16.72;46.77
9335;BME280;4706;41.844;26.082;2024-02-21T12:08:47;101460.88;;;16.71;46.94
9335;BME280;4706;41.844;26.082;2024-02-21T12:11:31;101464.88;;;16.56;46.87
9335;BME280;4706;41.844;26.082;2024-02-21T12:16:30;101466.56;;;16.35;47.46
9335;BME280;4706;41.844;26.082;2024-02-21T12:19:00;101459.53;;;16.29;47.29
9335;BME280;4706;41.844;26.082;2024-02-21T12:21:35;101463.84;;;16.21;47.59
9335;BME280;4706;41.844;26.082;2024-02-21T12:24:17;101462.03;;;16.16;47.05
9335;BME280;4706;41.844;26.082;2024-02-21T12:26:43;101465.44;;;16.13;47.05
9335;BME280;4706;41.844;26.082;2024-02-21T12:29:08;101459.44;;;15.75;47.33
9335;BME280;4706;41.844;26.082;2024-02-21T12:31:40;101452.03;;;15.84;47.41
9335;BME280;4706;41.844;26.082;2024-02-21T12:34:05;101453.91;;;15.97;47.20
9335;BME280;4706;41.844;26.082;2024-02-21T12:36:36;101453.84;;;15.89;47.02
9335;BME280;4706;41.844;26.082;2024-02-21T12:39:06;101442.03;;;16.06;46.98
9335;BME280;4706;41.844;26.082;2024-02-21T12:41:31;101448.06;;;16.21;46.55
9335;BME280;4706;41.844;26.082;2024-02-21T12:43:58;101439.03;;;16.16;46.45
9335;BME280;4706;41.844;26.082;2024-02-21T12:46:24;101447.91;;;16.26;46.41
9335;BME280;4706;41.844;26.082;2024-02-21T12:48:50;101453.63;;;16.30;46.22
9335;BME280;4706;41.844;26.082;2024-02-21T12:51:15;101448.97;;;16.17;46.28
9335;BME280;4706;41.844;26.082;2024-02-21T12:53:49;101442.00;;;15.74;47.24
9335;BME280;4706;41.844;26.082;2024-02-21T12:56:15;101452.91;;;16.16;47.41
9335;BME280;4706;41.844;26.082;2024-02-21T12:58:40;101440.78;;;16.43;47.01
9335;BME280;4706;41.844;26.082;2024-02-21T13:01:06;101437.66;;;16.67;46.10
9335;BME280;4706;41.844;26.082;2024-02-21T13:03:32;101439.69;;;16.92;45.06
9335;BME280;4706;41.844;26.082;2024-02-21T13:05:57;101443.06;;;17.20;43.99
9335;BME280;4706;41.844;26.082;2024-02-21T13:08:24;101440.78;;;17.31;43.58